sensor_id;sensor_type;location;lat;lon;timestamp;P1;durP1;ratioP1;P2;durP2;ratioP2
16839;SDS011;8536;52.150;11.572;2022-07-30T00:00:31;2.58;;;1.60;;
16839;SDS011;8536;52.150;11.572;2022-07-30T00:02:58;2.75;;;1.60;;
16839;SDS011;8536;52.150;11.572;2022-07-30T00:05:24;2.72;;;1.90;;
16839;SDS011;8536;52.150;11.572;2022-07-30T00:07:51;1.70;;;1.58;;
16839;SDS011;8536;52.150;11.572;2022-07-30T00:10:17;2.17;;;1.92;;
16839;SDS011;8536;52.150;11.572;2022-07-30T00:12:45;2.17;;;1.75;;
16839;SDS011;8536;52.150;11.572;2022-07-30T00:15:12;3.78;;;1.55;;
16839;SDS011;8536;52.150;11.572;2022-07-30T00:17:38;2.08;;;1.65;;
16839;SDS011;8536;52.150;11.572;2022-07-30T00:20:05;3.20;;;1.60;;
16839;SDS011;8536;52.150;11.572;2022-07-30T00:22:32;2.30;;;1.70;;
16839;SDS011;8536;52.150;11.572;2022-07-30T00:24:58;4.80;;;1.80;;
16839;SDS011;8536;52.150;11.572;2022-07-30T00:27:25;2.13;;;1.92;;
16839;SDS011;8536;52.150;11.572;2022-07-30T00:29:51;3.30;;;1.77;;
16839;SDS011;8536;52.150;11.572;2022-07-30T00:32:18;3.85;;;1.98;;
16839;SDS011;8536;52.150;11.572;2022-07-30T00:34:44;1.63;;;1.52;;
16839;SDS011;8536;52.150;11.572;2022-07-30T00:37:11;2.83;;;1.90;;
16839;SDS011;8536;52.150;11.572;2022-07-30T00:39:38;2.20;;;2.00;;
16839;SDS011;8536;52.150;11.572;2022-07-30T00:42:04;3.25;;;2.33;;
16839;SDS011;8536;52.150;11.572;2022-07-30T00:44:31;2.83;;;2.45;;
16839;SDS011;8536;52.150;11.572;2022-07-30T00:46:57;2.65;;;2.33;;
16839;SDS011;8536;52.150;11.572;2022-07-30T00:49:24;7.80;;;2.60;;
16839;SDS011;8536;52.150;11.572;2022-07-30T00:51:52;2.67;;;2.47;;
16839;SDS011;8536;52.150;11.572;2022-07-30T00:54:18;3.00;;;2.70;;
16839;SDS011;8536;52.150;11.572;2022-07-30T00:56:46;3.88;;;2.60;;
16839;SDS011;8536;52.150;11.572;2022-07-30T00:59:13;2.90;;;2.60;;
16839;SDS011;8536;52.150;11.572;2022-07-30T01:01:40;2.65;;;2.45;;
16839;SDS011;8536;52.150;11.572;2022-07-30T01:04:06;4.63;;;2.45;;
16839;SDS011;8536;52.150;11.572;2022-07-30T01:06:37;3.20;;;2.65;;
16839;SDS011;8536;52.150;11.572;2022-07-30T01:09:05;2.95;;;2.50;;
16839;SDS011;8536;52.150;11.572;2022-07-30T01:11:35;2.75;;;2.50;;
16839;SDS011;8536;52.150;11.572;2022-07-30T01:14:03;4.90;;;2.78;;
16839;SDS011;8536;52.150;11.572;2022-07-30T01:16:31;4.75;;;3.00;;
16839;SDS011;8536;52.150;11.572;2022-07-30T01:18:59;3.55;;;2.58;;
16839;SDS011;8536;52.150;11.572;2022-07-30T01:21:48;3.95;;;2.65;;
16839;SDS011;8536;52.150;11.572;2022-07-30T01:24:20;5.45;;;3.30;;
16839;SDS011;8536;52.150;11.572;2022-07-30T01:26:51;3.15;;;2.55;;
16839;SDS011;8536;52.150;11.572;2022-07-30T01:29:19;4.63;;;2.90;;
16839;SDS011;8536;52.150;11.572;2022-07-30T01:31:46;3.67;;;2.88;;
16839;SDS011;8536;52.150;11.572;2022-07-30T01:34:13;4.22;;;3.20;;
16839;SDS011;8536;52.150;11.572;2022-07-30T01:36:41;4.25;;;3.05;;
16839;SDS011;8536;52.150;11.572;2022-07-30T01:39:10;3.67;;;3.20;;
16839;SDS011;8536;52.150;11.572;2022-07-30T01:41:37;4.13;;;2.80;;
16839;SDS011;8536;52.150;11.572;2022-07-30T01:44:04;3.05;;;2.58;;
16839;SDS011;8536;52.150;11.572;2022-07-30T01:46:31;5.50;;;3.20;;
16839;SDS011;8536;52.150;11.572;2022-07-30T01:48:58;4.28;;;3.20;;
16839;SDS011;8536;52.150;11.572;2022-07-30T01:51:26;3.55;;;2.78;;
16839;SDS011;8536;52.150;11.572;2022-07-30T01:53:58;4.55;;;2.78;;
16839;SDS011;8536;52.150;11.572;2022-07-30T01:56:25;3.38;;;2.78;;
16839;SDS011;8536;52.150;11.572;2022-07-30T01:58:53;2.90;;;2.40;;
16839;SDS011;8536;52.150;11.572;2022-07-30T02:01:20;3.15;;;2.70;;
16839;SDS011;8536;52.150;11.572;2022-07-30T02:03:47;3.75;;;2.80;;
16839;SDS011;8536;52.150;11.572;2022-07-30T02:06:16;3.80;;;2.90;;
16839;SDS011;8536;52.150;11.572;2022-07-30T02:08:56;3.13;;;2.38;;
16839;SDS011;8536;52.150;11.572;2022-07-30T02:11:24;2.65;;;2.10;;
16839;SDS011;8536;52.150;11.572;2022-07-30T02:14:19;2.33;;;2.13;;
16839;SDS011;8536;52.150;11.572;2022-07-30T02:16:49;2.35;;;2.15;;
16839;SDS011;8536;52.150;11.572;2022-07-30T02:19:16;3.15;;;2.30;;
16839;SDS011;8536;52.150;11.572;2022-07-30T02:21:44;3.58;;;2.40;;
16839;SDS011;8536;52.150;11.572;2022-07-30T02:24:17;2.97;;;2.40;;
16839;SDS011;8536;52.150;11.572;2022-07-30T02:26:46;2.45;;;2.15;;
16839;SDS011;8536;52.150;11.572;2022-07-30T02:29:15;2.35;;;2.03;;
16839;SDS011;8536;52.150;11.572;2022-07-30T02:31:43;4.55;;;2.80;;
16839;SDS011;8536;52.150;11.572;2022-07-30T02:34:10;4.53;;;2.90;;
16839;SDS011;8536;52.150;11.572;2022-07-30T02:36:39;4.60;;;2.45;;
16839;SDS011;8536;52.150;11.572;2022-07-30T02:39:07;4.28;;;3.00;;
16839;SDS011;8536;52.150;11.572;2022-07-30T02:41:33;5.57;;;2.63;;
16839;SDS011;8536;52.150;11.572;2022-07-30T02:44:01;5.53;;;3.47;;
16839;SDS011;8536;52.150;11.572;2022-07-30T02:46:28;4.05;;;2.85;;
16839;SDS011;8536;52.150;11.572;2022-07-30T02:48:57;7.25;;;3.10;;
16839;SDS011;8536;52.150;11.572;2022-07-30T02:51:24;4.05;;;2.90;;
16839;SDS011;8536;52.150;11.572;2022-07-30T02:53:51;3.55;;;3.00;;
16839;SDS011;8536;52.150;11.572;2022-07-30T02:56:18;5.20;;;3.30;;
16839;SDS011;8536;52.150;11.572;2022-07-30T02:58:46;7.97;;;3.13;;
16839;SDS011;8536;52.150;11.572;2022-07-30T03:01:14;3.47;;;2.88;;
16839;SDS011;8536;52.150;11.572;2022-07-30T03:03:42;4.15;;;3.08;;
16839;SDS011;8536;52.150;11.572;2022-07-30T03:06:08;4.30;;;3.05;;
16839;SDS011;8536;52.150;11.572;2022-07-30T03:08:37;7.28;;;3.45;;
16839;SDS011;8536;52.150;11.572;2022-07-30T03:11:03;3.55;;;2.75;;
16839;SDS011;8536;52.150;11.572;2022-07-30T03:13:30;5.55;;;3.00;;
16839;SDS011;8536;52.150;11.572;2022-07-30T03:15:57;7.63;;;3.17;;
16839;SDS011;8536;52.150;11.572;2022-07-30T03:18:24;3.78;;;3.10;;
16839;SDS011;8536;52.150;11.572;2022-07-30T03:20:55;4.25;;;3.50;;
16839;SDS011;8536;52.150;11.572;2022-07-30T03:23:24;4.63;;;3.38;;
16839;SDS011;8536;52.150;11.572;2022-07-30T03:25:52;5.20;;;3.53;;
16839;SDS011;8536;52.150;11.572;2022-07-30T03:28:21;5.45;;;3.58;;
16839;SDS011;8536;52.150;11.572;2022-07-30T03:30:47;5.70;;;3.63;;
16839;SDS011;8536;52.150;11.572;2022-07-30T03:33:14;4.50;;;3.33;;
16839;SDS011;8536;52.150;11.572;2022-07-30T03:35:42;5.38;;;3.70;;
16839;SDS011;8536;52.150;11.572;2022-07-30T03:38:12;6.65;;;3.55;;
16839;SDS011;8536;52.150;11.572;2022-07-30T03:40:42;6.57;;;4.10;;
16839;SDS011;8536;52.150;11.572;2022-07-30T03:43:09;4.05;;;3.50;;
16839;SDS011;8536;52.150;11.572;2022-07-30T03:45:57;5.45;;;3.50;;
16839;SDS011;8536;52.150;11.572;2022-07-30T03:48:24;4.50;;;3.38;;
16839;SDS011;8536;52.150;11.572;2022-07-30T03:50:51;6.85;;;3.78;;
16839;SDS011;8536;52.150;11.572;2022-07-30T03:53:18;3.78;;;3.38;;
16839;SDS011;8536;52.150;11.572;2022-07-30T03:55:45;6.55;;;3.72;;
16839;SDS011;8536;52.150;11.572;2022-07-30T03:58:12;5.55;;;4.22;;
16839;SDS011;8536;52.150;11.572;2022-07-30T04:00:38;3.92;;;3.40;;
16839;SDS011;8536;52.150;11.572;2022-07-30T04:03:05;4.15;;;3.40;;
16839;SDS011;8536;52.150;11.572;2022-07-30T04:05:33;4.28;;;3.67;;
16839;SDS011;8536;52.150;11.572;2022-07-30T04:08:06;4.47;;;4.00;;
16839;SDS011;8536;52.150;11.572;2022-07-30T04:10:33;5.75;;;3.75;;
16839;SDS011;8536;52.150;11.572;2022-07-30T04:13:00;5.40;;;3.50;;
16839;SDS011;8536;52.150;11.572;2022-07-30T04:15:26;4.95;;;3.70;;
16839;SDS011;8536;52.150;11.572;2022-07-30T04:18:13;4.75;;;3.63;;
16839;SDS011;8536;52.150;11.572;2022-07-30T04:20:41;5.03;;;4.03;;
16839;SDS011;8536;52.150;11.572;2022-07-30T04:23:10;6.18;;;3.97;;
16839;SDS011;8536;52.150;11.572;2022-07-30T04:25:37;5.35;;;3.83;;
16839;SDS011;8536;52.150;11.572;2022-07-30T04:28:05;5.05;;;3.88;;
16839;SDS011;8536;52.150;11.572;2022-07-30T04:30:32;5.75;;;3.58;;
16839;SDS011;8536;52.150;11.572;2022-07-30T04:33:00;4.43;;;3.85;;
16839;SDS011;8536;52.150;11.572;2022-07-30T04:35:28;6.28;;;3.60;;
16839;SDS011;8536;52.150;11.572;2022-07-30T04:38:16;5.45;;;4.07;;
16839;SDS011;8536;52.150;11.572;2022-07-30T04:40:42;4.03;;;3.63;;
16839;SDS011;8536;52.150;11.572;2022-07-30T04:43:09;4.28;;;3.80;;
16839;SDS011;8536;52.150;11.572;2022-07-30T04:45:36;7.10;;;4.13;;
16839;SDS011;8536;52.150;11.572;2022-07-30T04:48:04;4.05;;;3.38;;
16839;SDS011;8536;52.150;11.572;2022-07-30T04:50:31;4.35;;;3.63;;
16839;SDS011;8536;52.150;11.572;2022-07-30T04:52:59;6.18;;;3.78;;
16839;SDS011;8536;52.150;11.572;2022-07-30T04:55:26;4.82;;;3.63;;
16839;SDS011;8536;52.150;11.572;2022-07-30T04:57:53;3.63;;;3.28;;
16839;SDS011;8536;52.150;11.572;2022-07-30T05:00:20;4.50;;;3.53;;
16839;SDS011;8536;52.150;11.572;2022-07-30T05:02:47;5.18;;;3.28;;
16839;SDS011;8536;52.150;11.572;2022-07-30T05:05:14;6.90;;;4.07;;
16839;SDS011;8536;52.150;11.572;2022-07-30T05:07:42;8.05;;;3.10;;
16839;SDS011;8536;52.150;11.572;2022-07-30T05:10:10;8.55;;;3.63;;
16839;SDS011;8536;52.150;11.572;2022-07-30T05:12:37;4.88;;;3.40;;
16839;SDS011;8536;52.150;11.572;2022-07-30T05:15:08;3.92;;;3.47;;
16839;SDS011;8536;52.150;11.572;2022-07-30T05:17:35;5.35;;;3.47;;
16839;SDS011;8536;52.150;11.572;2022-07-30T05:20:02;4.22;;;3.63;;
16839;SDS011;8536;52.150;11.572;2022-07-30T05:22:29;7.18;;;3.50;;
16839;SDS011;8536;52.150;11.572;2022-07-30T05:24:56;4.75;;;3.65;;
16839;SDS011;8536;52.150;11.572;2022-07-30T05:27:22;6.57;;;3.53;;
16839;SDS011;8536;52.150;11.572;2022-07-30T05:29:49;4.93;;;3.50;;
16839;SDS011;8536;52.150;11.572;2022-07-30T05:32:15;5.07;;;4.00;;
16839;SDS011;8536;52.150;11.572;2022-07-30T05:34:43;3.67;;;3.35;;
16839;SDS011;8536;52.150;11.572;2022-07-30T05:37:15;4.13;;;3.05;;
16839;SDS011;8536;52.150;11.572;2022-07-30T05:39:41;5.28;;;3.63;;
16839;SDS011;8536;52.150;11.572;2022-07-30T05:42:28;5.20;;;3.88;;
16839;SDS011;8536;52.150;11.572;2022-07-30T05:44:54;5.30;;;3.83;;
16839;SDS011;8536;52.150;11.572;2022-07-30T05:47:21;3.97;;;3.20;;
16839;SDS011;8536;52.150;11.572;2022-07-30T05:49:48;6.50;;;3.78;;
16839;SDS011;8536;52.150;11.572;2022-07-30T05:52:14;6.45;;;3.60;;
16839;SDS011;8536;52.150;11.572;2022-07-30T05:54:40;6.38;;;4.65;;
16839;SDS011;8536;52.150;11.572;2022-07-30T05:57:07;4.95;;;4.13;;
16839;SDS011;8536;52.150;11.572;2022-07-30T05:59:33;5.00;;;3.90;;
16839;SDS011;8536;52.150;11.572;2022-07-30T06:02:00;8.23;;;4.30;;
16839;SDS011;8536;52.150;11.572;2022-07-30T06:04:28;5.80;;;4.53;;
16839;SDS011;8536;52.150;11.572;2022-07-30T06:06:55;6.53;;;3.85;;
16839;SDS011;8536;52.150;11.572;2022-07-30T06:09:21;3.83;;;3.38;;
16839;SDS011;8536;52.150;11.572;2022-07-30T06:12:02;4.10;;;3.80;;
16839;SDS011;8536;52.150;11.572;2022-07-30T06:14:29;5.05;;;3.95;;
16839;SDS011;8536;52.150;11.572;2022-07-30T06:16:57;4.40;;;3.72;;
16839;SDS011;8536;52.150;11.572;2022-07-30T06:19:24;5.38;;;4.07;;
16839;SDS011;8536;52.150;11.572;2022-07-30T06:21:51;4.40;;;3.85;;
16839;SDS011;8536;52.150;11.572;2022-07-30T06:24:32;5.38;;;4.18;;
16839;SDS011;8536;52.150;11.572;2022-07-30T06:26:58;4.53;;;4.13;;
16839;SDS011;8536;52.150;11.572;2022-07-30T06:29:25;5.18;;;3.55;;
16839;SDS011;8536;52.150;11.572;2022-07-30T06:31:52;4.63;;;3.50;;
16839;SDS011;8536;52.150;11.572;2022-07-30T06:34:18;4.97;;;3.97;;
16839;SDS011;8536;52.150;11.572;2022-07-30T06:36:45;4.60;;;3.50;;
16839;SDS011;8536;52.150;11.572;2022-07-30T06:39:11;4.15;;;3.10;;
16839;SDS011;8536;52.150;11.572;2022-07-30T06:41:39;3.90;;;3.50;;
16839;SDS011;8536;52.150;11.572;2022-07-30T06:44:05;4.07;;;3.20;;
16839;SDS011;8536;52.150;11.572;2022-07-30T06:46:32;3.67;;;3.20;;
16839;SDS011;8536;52.150;11.572;2022-07-30T06:48:58;3.60;;;3.25;;
16839;SDS011;8536;52.150;11.572;2022-07-30T06:51:25;4.28;;;3.13;;
16839;SDS011;8536;52.150;11.572;2022-07-30T06:53:52;3.22;;;2.83;;
16839;SDS011;8536;52.150;11.572;2022-07-30T06:56:18;4.18;;;2.92;;
16839;SDS011;8536;52.150;11.572;2022-07-30T06:58:45;3.40;;;3.10;;
16839;SDS011;8536;52.150;11.572;2022-07-30T07:01:11;3.83;;;3.42;;
16839;SDS011;8536;52.150;11.572;2022-07-30T07:03:38;4.35;;;3.53;;
16839;SDS011;8536;52.150;11.572;2022-07-30T07:06:06;4.65;;;3.60;;
16839;SDS011;8536;52.150;11.572;2022-07-30T07:08:34;3.78;;;3.40;;
16839;SDS011;8536;52.150;11.572;2022-07-30T07:11:01;3.30;;;2.97;;
16839;SDS011;8536;52.150;11.572;2022-07-30T07:13:28;3.58;;;3.28;;
16839;SDS011;8536;52.150;11.572;2022-07-30T07:15:55;4.30;;;3.35;;
16839;SDS011;8536;52.150;11.572;2022-07-30T07:18:22;3.95;;;3.38;;
16839;SDS011;8536;52.150;11.572;2022-07-30T07:20:49;4.25;;;3.65;;
16839;SDS011;8536;52.150;11.572;2022-07-30T07:23:15;4.75;;;3.05;;
16839;SDS011;8536;52.150;11.572;2022-07-30T07:25:45;3.55;;;3.05;;
16839;SDS011;8536;52.150;11.572;2022-07-30T07:28:12;3.83;;;3.33;;
16839;SDS011;8536;52.150;11.572;2022-07-30T07:30:42;4.57;;;3.47;;
16839;SDS011;8536;52.150;11.572;2022-07-30T07:33:09;5.35;;;3.47;;
16839;SDS011;8536;52.150;11.572;2022-07-30T07:35:36;4.28;;;3.80;;
16839;SDS011;8536;52.150;11.572;2022-07-30T07:38:18;6.70;;;3.30;;
16839;SDS011;8536;52.150;11.572;2022-07-30T07:40:45;4.93;;;3.40;;
16839;SDS011;8536;52.150;11.572;2022-07-30T07:43:12;4.45;;;3.53;;
16839;SDS011;8536;52.150;11.572;2022-07-30T07:45:40;3.38;;;3.13;;
16839;SDS011;8536;52.150;11.572;2022-07-30T07:48:07;3.75;;;3.45;;
16839;SDS011;8536;52.150;11.572;2022-07-30T07:50:35;4.68;;;3.47;;
16839;SDS011;8536;52.150;11.572;2022-07-30T07:53:01;3.90;;;3.50;;
16839;SDS011;8536;52.150;11.572;2022-07-30T07:55:28;4.05;;;3.50;;
16839;SDS011;8536;52.150;11.572;2022-07-30T07:57:57;3.90;;;3.58;;
16839;SDS011;8536;52.150;11.572;2022-07-30T08:00:25;3.72;;;3.42;;
16839;SDS011;8536;52.150;11.572;2022-07-30T08:02:51;4.05;;;3.22;;
16839;SDS011;8536;52.150;11.572;2022-07-30T08:05:18;3.60;;;3.00;;
16839;SDS011;8536;52.150;11.572;2022-07-30T08:07:45;5.68;;;3.38;;
16839;SDS011;8536;52.150;11.572;2022-07-30T08:10:11;4.03;;;3.38;;
16839;SDS011;8536;52.150;11.572;2022-07-30T08:12:40;3.78;;;3.47;;
16839;SDS011;8536;52.150;11.572;2022-07-30T08:15:07;4.53;;;3.50;;
16839;SDS011;8536;52.150;11.572;2022-07-30T08:17:43;3.38;;;3.08;;
16839;SDS011;8536;52.150;11.572;2022-07-30T08:20:11;4.00;;;3.22;;
16839;SDS011;8536;52.150;11.572;2022-07-30T08:22:39;5.68;;;3.38;;
16839;SDS011;8536;52.150;11.572;2022-07-30T08:25:06;4.63;;;3.65;;
16839;SDS011;8536;52.150;11.572;2022-07-30T08:27:33;3.78;;;3.40;;
16839;SDS011;8536;52.150;11.572;2022-07-30T08:30:04;3.47;;;3.00;;
16839;SDS011;8536;52.150;11.572;2022-07-30T08:32:31;3.92;;;2.88;;
16839;SDS011;8536;52.150;11.572;2022-07-30T08:34:58;3.35;;;2.90;;
16839;SDS011;8536;52.150;11.572;2022-07-30T08:37:25;3.30;;;3.00;;
16839;SDS011;8536;52.150;11.572;2022-07-30T08:39:51;3.42;;;3.00;;
16839;SDS011;8536;52.150;11.572;2022-07-30T08:42:18;4.07;;;3.67;;
16839;SDS011;8536;52.150;11.572;2022-07-30T08:44:44;3.55;;;3.20;;
16839;SDS011;8536;52.150;11.572;2022-07-30T08:47:14;3.63;;;3.28;;
16839;SDS011;8536;52.150;11.572;2022-07-30T08:49:42;3.55;;;3.22;;
16839;SDS011;8536;52.150;11.572;2022-07-30T08:52:09;3.85;;;3.03;;
16839;SDS011;8536;52.150;11.572;2022-07-30T08:54:37;5.40;;;3.78;;
16839;SDS011;8536;52.150;11.572;2022-07-30T08:57:04;3.10;;;2.80;;
16839;SDS011;8536;52.150;11.572;2022-07-30T08:59:31;4.13;;;3.20;;
16839;SDS011;8536;52.150;11.572;2022-07-30T09:02:17;4.47;;;3.28;;
16839;SDS011;8536;52.150;11.572;2022-07-30T09:04:53;3.22;;;2.88;;
16839;SDS011;8536;52.150;11.572;2022-07-30T09:07:19;5.07;;;3.58;;
16839;SDS011;8536;52.150;11.572;2022-07-30T09:09:46;4.97;;;3.70;;
16839;SDS011;8536;52.150;11.572;2022-07-30T09:12:31;3.78;;;2.97;;
16839;SDS011;8536;52.150;11.572;2022-07-30T09:20:32;5.47;;;3.13;;
16839;SDS011;8536;52.150;11.572;2022-07-30T09:23:01;3.50;;;3.20;;
16839;SDS011;8536;52.150;11.572;2022-07-30T09:25:39;3.97;;;3.58;;
16839;SDS011;8536;52.150;11.572;2022-07-30T09:28:11;6.57;;;3.63;;
16839;SDS011;8536;52.150;11.572;2022-07-30T09:30:43;4.50;;;3.15;;
16839;SDS011;8536;52.150;11.572;2022-07-30T09:33:36;3.70;;;3.20;;
16839;SDS011;8536;52.150;11.572;2022-07-30T09:36:07;4.07;;;3.05;;
16839;SDS011;8536;52.150;11.572;2022-07-30T09:41:07;3.90;;;3.03;;
16839;SDS011;8536;52.150;11.572;2022-07-30T09:43:54;3.65;;;3.08;;
16839;SDS011;8536;52.150;11.572;2022-07-30T09:46:21;4.32;;;3.05;;
16839;SDS011;8536;52.150;11.572;2022-07-30T09:48:47;3.53;;;3.20;;
16839;SDS011;8536;52.150;11.572;2022-07-30T09:51:14;3.67;;;3.05;;
16839;SDS011;8536;52.150;11.572;2022-07-30T09:53:56;4.10;;;3.40;;
16839;SDS011;8536;52.150;11.572;2022-07-30T09:56:26;3.17;;;2.88;;
16839;SDS011;8536;52.150;11.572;2022-07-30T09:58:55;4.78;;;3.22;;
16839;SDS011;8536;52.150;11.572;2022-07-30T10:01:21;3.33;;;3.03;;
16839;SDS011;8536;52.150;11.572;2022-07-30T10:04:08;3.45;;;2.80;;
16839;SDS011;8536;52.150;11.572;2022-07-30T10:06:36;3.35;;;2.83;;
16839;SDS011;8536;52.150;11.572;2022-07-30T10:09:07;4.07;;;2.85;;
16839;SDS011;8536;52.150;11.572;2022-07-30T10:11:41;4.05;;;2.60;;
16839;SDS011;8536;52.150;11.572;2022-07-30T10:14:09;3.72;;;3.00;;
16839;SDS011;8536;52.150;11.572;2022-07-30T10:16:37;3.25;;;2.92;;
16839;SDS011;8536;52.150;11.572;2022-07-30T10:19:03;2.97;;;2.67;;
16839;SDS011;8536;52.150;11.572;2022-07-30T10:21:38;2.80;;;2.50;;
16839;SDS011;8536;52.150;11.572;2022-07-30T10:24:05;4.30;;;2.90;;
16839;SDS011;8536;52.150;11.572;2022-07-30T10:26:32;3.38;;;2.90;;
16839;SDS011;8536;52.150;11.572;2022-07-30T10:29:00;4.47;;;2.88;;
16839;SDS011;8536;52.150;11.572;2022-07-30T10:31:27;4.53;;;3.08;;
16839;SDS011;8536;52.150;11.572;2022-07-30T10:34:15;5.50;;;2.75;;
16839;SDS011;8536;52.150;11.572;2022-07-30T10:36:43;2.95;;;2.60;;
16839;SDS011;8536;52.150;11.572;2022-07-30T10:39:16;2.65;;;2.42;;
16839;SDS011;8536;52.150;11.572;2022-07-30T10:47:01;2.70;;;2.50;;
16839;SDS011;8536;52.150;11.572;2022-07-30T10:49:33;3.42;;;2.47;;
16839;SDS011;8536;52.150;11.572;2022-07-30T10:52:08;2.97;;;2.67;;
16839;SDS011;8536;52.150;11.572;2022-07-30T10:57:06;2.63;;;2.42;;
16839;SDS011;8536;52.150;11.572;2022-07-30T11:02:30;5.47;;;2.60;;
16839;SDS011;8536;52.150;11.572;2022-07-30T11:07:43;5.25;;;3.20;;
16839;SDS011;8536;52.150;11.572;2022-07-30T11:13:07;3.28;;;2.97;;
16839;SDS011;8536;52.150;11.572;2022-07-30T11:15:50;2.72;;;2.50;;
16839;SDS011;8536;52.150;11.572;2022-07-30T11:18:21;3.42;;;2.88;;
16839;SDS011;8536;52.150;11.572;2022-07-30T11:23:46;3.40;;;2.70;;
16839;SDS011;8536;52.150;11.572;2022-07-30T11:29:06;3.33;;;2.42;;
16839;SDS011;8536;52.150;11.572;2022-07-30T11:32:22;3.53;;;2.42;;
16839;SDS011;8536;52.150;11.572;2022-07-30T11:35:09;2.83;;;2.50;;
16839;SDS011;8536;52.150;11.572;2022-07-30T11:40:30;3.35;;;1.92;;
16839;SDS011;8536;52.150;11.572;2022-07-30T11:45:40;1.90;;;1.80;;
16839;SDS011;8536;52.150;11.572;2022-07-30T11:48:11;2.67;;;2.00;;
16839;SDS011;8536;52.150;11.572;2022-07-30T11:50:39;3.40;;;2.63;;
16839;SDS011;8536;52.150;11.572;2022-07-30T11:53:07;3.15;;;2.40;;
16839;SDS011;8536;52.150;11.572;2022-07-30T11:55:35;2.47;;;2.28;;
16839;SDS011;8536;52.150;11.572;2022-07-30T11:58:05;3.92;;;2.20;;
16839;SDS011;8536;52.150;11.572;2022-07-30T12:00:34;3.45;;;2.65;;
16839;SDS011;8536;52.150;11.572;2022-07-30T12:03:21;3.15;;;2.30;;
16839;SDS011;8536;52.150;11.572;2022-07-30T12:05:50;4.78;;;2.47;;
16839;SDS011;8536;52.150;11.572;2022-07-30T12:08:18;3.00;;;2.25;;
16839;SDS011;8536;52.150;11.572;2022-07-30T12:11:01;2.50;;;2.30;;
16839;SDS011;8536;52.150;11.572;2022-07-30T12:13:27;2.35;;;2.15;;
16839;SDS011;8536;52.150;11.572;2022-07-30T12:16:14;3.17;;;2.20;;
16839;SDS011;8536;52.150;11.572;2022-07-30T12:18:41;3.30;;;2.33;;
16839;SDS011;8536;52.150;11.572;2022-07-30T12:21:08;2.40;;;2.20;;
16839;SDS011;8536;52.150;11.572;2022-07-30T12:23:41;2.95;;;2.25;;
16839;SDS011;8536;52.150;11.572;2022-07-30T12:26:21;2.72;;;2.08;;
16839;SDS011;8536;52.150;11.572;2022-07-30T12:28:51;3.40;;;2.15;;
16839;SDS011;8536;52.150;11.572;2022-07-30T12:31:20;2.65;;;2.10;;
16839;SDS011;8536;52.150;11.572;2022-07-30T12:33:46;2.50;;;2.17;;
16839;SDS011;8536;52.150;11.572;2022-07-30T12:36:32;2.28;;;2.08;;
16839;SDS011;8536;52.150;11.572;2022-07-30T12:39:00;3.80;;;2.22;;
16839;SDS011;8536;52.150;11.572;2022-07-30T12:41:40;3.67;;;2.30;;
16839;SDS011;8536;52.150;11.572;2022-07-30T12:44:08;2.53;;;2.30;;
16839;SDS011;8536;52.150;11.572;2022-07-30T12:46:39;3.00;;;2.30;;
16839;SDS011;8536;52.150;11.572;2022-07-30T12:49:06;2.15;;;1.95;;
16839;SDS011;8536;52.150;11.572;2022-07-30T12:51:49;3.60;;;2.40;;
16839;SDS011;8536;52.150;11.572;2022-07-30T12:54:25;4.15;;;2.40;;
16839;SDS011;8536;52.150;11.572;2022-07-30T12:57:00;3.58;;;2.22;;
16839;SDS011;8536;52.150;11.572;2022-07-30T12:59:28;2.80;;;2.30;;
16839;SDS011;8536;52.150;11.572;2022-07-30T13:01:56;2.90;;;2.13;;
16839;SDS011;8536;52.150;11.572;2022-07-30T13:04:25;3.22;;;2.13;;
16839;SDS011;8536;52.150;11.572;2022-07-30T13:07:02;3.50;;;2.13;;
16839;SDS011;8536;52.150;11.572;2022-07-30T13:09:29;4.32;;;2.20;;
16839;SDS011;8536;52.150;11.572;2022-07-30T13:11:56;3.55;;;2.10;;
16839;SDS011;8536;52.150;11.572;2022-07-30T13:14:23;2.83;;;2.28;;
16839;SDS011;8536;52.150;11.572;2022-07-30T13:16:52;2.40;;;2.20;;
16839;SDS011;8536;52.150;11.572;2022-07-30T13:19:20;3.55;;;2.40;;
16839;SDS011;8536;52.150;11.572;2022-07-30T13:21:46;2.45;;;2.25;;
16839;SDS011;8536;52.150;11.572;2022-07-30T13:24:15;2.45;;;2.25;;
16839;SDS011;8536;52.150;11.572;2022-07-30T13:26:43;2.70;;;2.15;;
16839;SDS011;8536;52.150;11.572;2022-07-30T13:29:10;2.33;;;2.00;;
16839;SDS011;8536;52.150;11.572;2022-07-30T13:31:39;2.10;;;1.90;;
16839;SDS011;8536;52.150;11.572;2022-07-30T13:34:08;2.55;;;2.17;;
16839;SDS011;8536;52.150;11.572;2022-07-30T13:36:34;2.40;;;2.20;;
16839;SDS011;8536;52.150;11.572;2022-07-30T13:39:01;2.67;;;2.33;;
16839;SDS011;8536;52.150;11.572;2022-07-30T13:41:27;3.25;;;2.35;;
16839;SDS011;8536;52.150;11.572;2022-07-30T13:43:54;3.33;;;1.88;;
16839;SDS011;8536;52.150;11.572;2022-07-30T13:46:21;2.33;;;1.90;;
16839;SDS011;8536;52.150;11.572;2022-07-30T13:48:47;2.25;;;1.95;;
16839;SDS011;8536;52.150;11.572;2022-07-30T13:51:14;2.30;;;2.10;;
16839;SDS011;8536;52.150;11.572;2022-07-30T13:53:41;2.28;;;2.08;;
16839;SDS011;8536;52.150;11.572;2022-07-30T13:56:08;2.40;;;2.20;;
16839;SDS011;8536;52.150;11.572;2022-07-30T13:58:38;2.75;;;2.25;;
16839;SDS011;8536;52.150;11.572;2022-07-30T14:01:04;2.70;;;2.25;;
16839;SDS011;8536;52.150;11.572;2022-07-30T14:03:32;2.38;;;2.17;;
16839;SDS011;8536;52.150;11.572;2022-07-30T14:05:59;2.25;;;2.05;;
16839;SDS011;8536;52.150;11.572;2022-07-30T14:08:36;2.35;;;2.15;;
16839;SDS011;8536;52.150;11.572;2022-07-30T14:11:03;2.15;;;1.90;;
16839;SDS011;8536;52.150;11.572;2022-07-30T14:13:30;3.00;;;2.03;;
16839;SDS011;8536;52.150;11.572;2022-07-30T14:15:56;2.60;;;2.33;;
16839;SDS011;8536;52.150;11.572;2022-07-30T14:18:23;2.80;;;2.20;;
16839;SDS011;8536;52.150;11.572;2022-07-30T14:20:49;2.85;;;2.30;;
16839;SDS011;8536;52.150;11.572;2022-07-30T14:23:18;3.17;;;2.28;;
16839;SDS011;8536;52.150;11.572;2022-07-30T14:25:45;2.38;;;2.17;;
16839;SDS011;8536;52.150;11.572;2022-07-30T14:28:11;2.30;;;2.10;;
16839;SDS011;8536;52.150;11.572;2022-07-30T14:30:38;2.45;;;2.25;;
16839;SDS011;8536;52.150;11.572;2022-07-30T14:33:04;2.78;;;2.03;;
16839;SDS011;8536;52.150;11.572;2022-07-30T14:35:31;2.10;;;2.00;;
16839;SDS011;8536;52.150;11.572;2022-07-30T14:37:57;2.40;;;2.20;;
16839;SDS011;8536;52.150;11.572;2022-07-30T14:40:24;2.13;;;1.90;;
16839;SDS011;8536;52.150;11.572;2022-07-30T14:42:50;2.15;;;1.95;;
16839;SDS011;8536;52.150;11.572;2022-07-30T14:45:21;2.50;;;2.30;;
16839;SDS011;8536;52.150;11.572;2022-07-30T14:47:47;2.20;;;2.00;;
16839;SDS011;8536;52.150;11.572;2022-07-30T14:50:14;2.50;;;2.30;;
16839;SDS011;8536;52.150;11.572;2022-07-30T14:52:40;2.05;;;1.95;;
16839;SDS011;8536;52.150;11.572;2022-07-30T14:55:07;3.40;;;1.90;;
16839;SDS011;8536;52.150;11.572;2022-07-30T14:57:34;3.97;;;1.90;;
16839;SDS011;8536;52.150;11.572;2022-07-30T15:00:01;2.50;;;2.00;;
16839;SDS011;8536;52.150;11.572;2022-07-30T15:02:29;2.13;;;1.95;;
16839;SDS011;8536;52.150;11.572;2022-07-30T15:04:55;2.80;;;1.92;;
16839;SDS011;8536;52.150;11.572;2022-07-30T15:07:21;1.95;;;1.75;;
16839;SDS011;8536;52.150;11.572;2022-07-30T15:09:48;2.03;;;1.75;;
16839;SDS011;8536;52.150;11.572;2022-07-30T15:12:14;1.92;;;1.75;;
16839;SDS011;8536;52.150;11.572;2022-07-30T15:14:52;1.98;;;1.80;;
16839;SDS011;8536;52.150;11.572;2022-07-30T15:17:18;2.33;;;2.13;;
16839;SDS011;8536;52.150;11.572;2022-07-30T15:19:46;2.60;;;2.40;;
16839;SDS011;8536;52.150;11.572;2022-07-30T15:22:16;3.22;;;2.38;;
16839;SDS011;8536;52.150;11.572;2022-07-30T15:24:45;3.47;;;2.17;;
16839;SDS011;8536;52.150;11.572;2022-07-30T15:27:12;2.15;;;2.03;;
16839;SDS011;8536;52.150;11.572;2022-07-30T15:29:38;2.33;;;2.10;;
16839;SDS011;8536;52.150;11.572;2022-07-30T15:32:05;2.30;;;2.10;;
16839;SDS011;8536;52.150;11.572;2022-07-30T15:34:32;1.90;;;1.80;;